Decoded Metar for LFPB (PARIS LE BOURGET in FRANCE) (IATA:LBG) | Meteo·Mobile Aviation Weather
aviador You're here:

LFPB Decoded Metar

PARIS LE BOURGET in FRANCE
Report Time2019-02-17 05:00:00
UTC Time2019-02-17 05:18:49
Flight Rules mvfr MVFR
Wind070° at 06 kt
W.Decomp.*RWY 07: 6.0 kt HW 0.1 kt RCW
RWY 09: 5.7 kt HW 2 kt LCW
RWY 03: 4.5 kt HW 3.9 kt RCW
W.Rank070° ranks 24
Current wind is above 070° avg. (5.4)
Visibility7000 m
Phenomena:N/A
Clouds:N/A
Expected CloudBase > 800 ft AGL from Temp-Dew spread
CeilingNone
Temp02°C (ISA -13)
Dew Point00°C (87% RH)
AAT-2.1°C
QNH1021 hPa
Density Alt-1,506 ft
Elevation213 ft
Report Wrong Elevation
Raw Report
LFPB 170500Z AUTO 07006KT 7000 NSC 02/M00 Q1021 TEMPO 4000 BR=

Extra information for LFPB:More info

Metar Taf Metar & Taf Last 4 Metars F.Rules Stats Wind Profile Meteogram Temp Stats Airport Information Weather charts Add Link Nearby VenuesMetar ALERT Operation Metar Decoded Social comments